sensor_id;sensor_type;location;lat;lon;timestamp;pressure;altitude;pressure_sealevel;temperature;humidity
31225;BME280;17847;31.524;74.366;2023-09-30T00:02:04;98247.78;;;23.54;nan
31225;BME280;17847;31.524;74.366;2023-09-30T00:04:33;98243.19;;;23.54;nan
31225;BME280;17847;31.524;74.366;2023-09-30T00:07:03;98252.16;;;23.50;nan
31225;BME280;17847;31.524;74.366;2023-09-30T00:09:33;98252.38;;;23.53;nan
31225;BME280;17847;31.524;74.366;2023-09-30T00:12:03;98252.09;;;23.55;nan
31225;BME280;17847;31.524;74.366;2023-09-30T00:14:33;98258.88;;;23.52;nan
31225;BME280;17847;31.524;74.366;2023-09-30T00:17:02;98256.72;;;23.54;nan
31225;BME280;17847;31.524;74.366;2023-09-30T00:19:31;98255.94;;;23.49;nan
31225;BME280;17847;31.524;74.366;2023-09-30T00:22:01;98268.59;;;23.53;nan
31225;BME280;17847;31.524;74.366;2023-09-30T00:24:30;98257.78;;;23.53;nan
31225;BME280;17847;31.524;74.366;2023-09-30T00:26:59;98266.13;;;23.57;nan
31225;BME280;17847;31.524;74.366;2023-09-30T00:29:29;98264.34;;;23.47;nan
31225;BME280;17847;31.524;74.366;2023-09-30T00:31:58;98272.25;;;23.39;nan
31225;BME280;17847;31.524;74.366;2023-09-30T00:34:28;98271.13;;;23.45;nan
31225;BME280;17847;31.524;74.366;2023-09-30T00:36:57;98273.47;;;23.51;nan
31225;BME280;17847;31.524;74.366;2023-09-30T00:39:27;98275.16;;;23.47;nan
31225;BME280;17847;31.524;74.366;2023-09-30T00:41:59;98282.97;;;23.49;nan
31225;BME280;17847;31.524;74.366;2023-09-30T00:44:28;98281.94;;;23.45;nan
31225;BME280;17847;31.524;74.366;2023-09-30T00:46:57;98273.63;;;23.36;nan
31225;BME280;17847;31.524;74.366;2023-09-30T00:49:31;98279.31;;;23.35;nan
31225;BME280;17847;31.524;74.366;2023-09-30T00:52:00;98275.28;;;23.32;nan
31225;BME280;17847;31.524;74.366;2023-09-30T00:54:31;98283.09;;;23.34;nan
31225;BME280;17847;31.524;74.366;2023-09-30T00:57:18;98277.19;;;23.32;nan
31225;BME280;17847;31.524;74.366;2023-09-30T00:59:50;98283.59;;;23.41;nan
31225;BME280;17847;31.524;74.366;2023-09-30T01:02:20;98284.66;;;23.45;nan
31225;BME280;17847;31.524;74.366;2023-09-30T01:04:51;98283.63;;;23.36;nan
31225;BME280;17847;31.524;74.366;2023-09-30T01:07:21;98283.31;;;23.37;nan
31225;BME280;17847;31.524;74.366;2023-09-30T01:09:53;98286.78;;;23.43;nan
31225;BME280;17847;31.524;74.366;2023-09-30T01:12:23;98291.69;;;23.41;nan
31225;BME280;17847;31.524;74.366;2023-09-30T01:14:58;98291.38;;;23.42;nan
31225;BME280;17847;31.524;74.366;2023-09-30T01:17:30;98291.38;;;23.47;nan
31225;BME280;17847;31.524;74.366;2023-09-30T01:20:01;98300.81;;;23.50;nan
31225;BME280;17847;31.524;74.366;2023-09-30T01:22:35;98300.66;;;23.65;nan
31225;BME280;17847;31.524;74.366;2023-09-30T01:29:17;98310.44;;;23.61;nan
31225;BME280;17847;31.524;74.366;2023-09-30T01:31:53;98304.97;;;23.66;nan
31225;BME280;17847;31.524;74.366;2023-09-30T01:34:22;98308.06;;;23.78;nan
31225;BME280;17847;31.524;74.366;2023-09-30T01:36:51;98314.16;;;23.65;nan
31225;BME280;17847;31.524;74.366;2023-09-30T01:39:24;98317.28;;;23.77;nan
31225;BME280;17847;31.524;74.366;2023-09-30T01:41:53;98323.50;;;23.78;nan
31225;BME280;17847;31.524;74.366;2023-09-30T01:44:22;98327.06;;;23.73;nan
31225;BME280;17847;31.524;74.366;2023-09-30T01:46:52;98324.97;;;23.65;nan
31225;BME280;17847;31.524;74.366;2023-09-30T01:49:21;98331.09;;;23.76;nan
31225;BME280;17847;31.524;74.366;2023-09-30T01:51:54;98331.78;;;23.86;nan
31225;BME280;17847;31.524;74.366;2023-09-30T01:54:25;98331.94;;;23.95;nan
31225;BME280;17847;31.524;74.366;2023-09-30T01:56:55;98330.53;;;24.02;nan
31225;BME280;17847;31.524;74.366;2023-09-30T01:59:25;98333.28;;;23.97;nan
31225;BME280;17847;31.524;74.366;2023-09-30T02:01:54;98337.03;;;24.01;nan
31225;BME280;17847;31.524;74.366;2023-09-30T02:04:26;98340.81;;;24.00;nan
31225;BME280;17847;31.524;74.366;2023-09-30T02:06:55;98346.72;;;24.07;nan
31225;BME280;17847;31.524;74.366;2023-09-30T02:09:26;98348.84;;;24.10;nan
31225;BME280;17847;31.524;74.366;2023-09-30T02:11:56;98350.34;;;24.22;nan
31225;BME280;17847;31.524;74.366;2023-09-30T02:14:26;98354.94;;;24.21;nan
31225;BME280;17847;31.524;74.366;2023-09-30T02:16:55;98358.34;;;24.32;nan
31225;BME280;17847;31.524;74.366;2023-09-30T02:19:26;98368.13;;;24.28;nan
31225;BME280;17847;31.524;74.366;2023-09-30T02:21:57;98368.03;;;24.38;nan
31225;BME280;17847;31.524;74.366;2023-09-30T02:24:27;98363.91;;;24.40;nan
31225;BME280;17847;31.524;74.366;2023-09-30T02:26:57;98367.59;;;24.49;nan
31225;BME280;17847;31.524;74.366;2023-09-30T02:29:27;98375.06;;;24.57;nan
31225;BME280;17847;31.524;74.366;2023-09-30T02:31:56;98375.16;;;24.71;nan
31225;BME280;17847;31.524;74.366;2023-09-30T02:34:27;98377.25;;;24.74;nan
31225;BME280;17847;31.524;74.366;2023-09-30T02:36:56;98382.81;;;24.83;nan
31225;BME280;17847;31.524;74.366;2023-09-30T02:39:25;98382.06;;;24.82;nan
31225;BME280;17847;31.524;74.366;2023-09-30T02:41:55;98383.94;;;24.82;nan
31225;BME280;17847;31.524;74.366;2023-09-30T02:44:25;98383.63;;;24.83;nan
31225;BME280;17847;31.524;74.366;2023-09-30T02:46:54;98380.09;;;25.07;nan
31225;BME280;17847;31.524;74.366;2023-09-30T02:49:24;98384.41;;;25.08;nan
31225;BME280;17847;31.524;74.366;2023-09-30T02:51:54;98388.28;;;25.20;nan
31225;BME280;17847;31.524;74.366;2023-09-30T02:54:23;98390.09;;;25.25;nan
31225;BME280;17847;31.524;74.366;2023-09-30T02:56:52;98394.13;;;25.27;nan
31225;BME280;17847;31.524;74.366;2023-09-30T02:59:23;98391.66;;;25.31;nan
31225;BME280;17847;31.524;74.366;2023-09-30T03:01:53;98396.38;;;25.39;nan
31225;BME280;17847;31.524;74.366;2023-09-30T03:04:22;98401.94;;;25.47;nan
31225;BME280;17847;31.524;74.366;2023-09-30T03:06:54;98400.69;;;25.59;nan
31225;BME280;17847;31.524;74.366;2023-09-30T03:09:26;98403.47;;;25.54;nan
31225;BME280;17847;31.524;74.366;2023-09-30T03:11:56;98405.53;;;25.62;nan
31225;BME280;17847;31.524;74.366;2023-09-30T03:14:27;98403.72;;;25.57;nan
31225;BME280;17847;31.524;74.366;2023-09-30T03:17:03;98414.97;;;25.64;nan
31225;BME280;17847;31.524;74.366;2023-09-30T03:19:32;98409.28;;;25.79;nan
31225;BME280;17847;31.524;74.366;2023-09-30T03:22:02;98412.94;;;25.88;nan
31225;BME280;17847;31.524;74.366;2023-09-30T03:24:33;98413.25;;;26.01;nan
31225;BME280;17847;31.524;74.366;2023-09-30T03:27:03;98415.16;;;26.14;nan
31225;BME280;17847;31.524;74.366;2023-09-30T03:29:35;98414.34;;;26.13;nan
31225;BME280;17847;31.524;74.366;2023-09-30T03:32:04;98423.75;;;26.21;nan
31225;BME280;17847;31.524;74.366;2023-09-30T03:34:34;98414.50;;;26.22;nan
31225;BME280;17847;31.524;74.366;2023-09-30T03:37:05;98424.41;;;26.13;nan
31225;BME280;17847;31.524;74.366;2023-09-30T03:39:38;98409.47;;;26.29;nan
31225;BME280;17847;31.524;74.366;2023-09-30T03:42:09;98414.59;;;26.44;nan
31225;BME280;17847;31.524;74.366;2023-09-30T03:44:42;98417.69;;;26.51;nan
31225;BME280;17847;31.524;74.366;2023-09-30T03:47:11;98418.59;;;26.60;nan
31225;BME280;17847;31.524;74.366;2023-09-30T03:49:41;98419.91;;;26.76;nan
31225;BME280;17847;31.524;74.366;2023-09-30T03:52:16;98420.91;;;26.94;nan
31225;BME280;17847;31.524;74.366;2023-09-30T03:54:47;98429.69;;;27.13;nan
31225;BME280;17847;31.524;74.366;2023-09-30T03:57:17;98426.06;;;27.18;nan
31225;BME280;17847;31.524;74.366;2023-09-30T03:59:46;98430.03;;;27.12;nan
31225;BME280;17847;31.524;74.366;2023-09-30T04:02:16;98426.88;;;27.18;nan
31225;BME280;17847;31.524;74.366;2023-09-30T04:04:45;98433.81;;;27.47;nan
31225;BME280;17847;31.524;74.366;2023-09-30T04:07:15;98432.41;;;27.49;nan
31225;BME280;17847;31.524;74.366;2023-09-30T04:09:47;98444.22;;;27.09;nan
31225;BME280;17847;31.524;74.366;2023-09-30T04:12:16;98439.88;;;27.44;nan
31225;BME280;17847;31.524;74.366;2023-09-30T04:14:46;98443.28;;;27.94;nan
31225;BME280;17847;31.524;74.366;2023-09-30T04:17:15;98446.03;;;28.02;nan
31225;BME280;17847;31.524;74.366;2023-09-30T04:19:44;98446.47;;;28.18;nan
31225;BME280;17847;31.524;74.366;2023-09-30T04:22:14;98449.28;;;28.35;nan
31225;BME280;17847;31.524;74.366;2023-09-30T04:24:45;98459.47;;;28.69;nan
31225;BME280;17847;31.524;74.366;2023-09-30T04:27:16;98460.06;;;28.88;nan
31225;BME280;17847;31.524;74.366;2023-09-30T04:29:45;98457.06;;;29.24;nan
31225;BME280;17847;31.524;74.366;2023-09-30T04:32:14;98455.78;;;29.48;nan
31225;BME280;17847;31.524;74.366;2023-09-30T04:34:44;98453.22;;;29.68;nan
31225;BME280;17847;31.524;74.366;2023-09-30T04:37:23;98461.38;;;29.85;nan
31225;BME280;17847;31.524;74.366;2023-09-30T04:40:09;98465.22;;;29.93;nan
31225;BME280;17847;31.524;74.366;2023-09-30T04:42:51;98460.69;;;30.06;nan
31225;BME280;17847;31.524;74.366;2023-09-30T04:45:23;98472.16;;;30.46;nan
31225;BME280;17847;31.524;74.366;2023-09-30T04:47:53;98473.41;;;30.57;nan
31225;BME280;17847;31.524;74.366;2023-09-30T04:50:24;98480.31;;;30.54;nan
31225;BME280;17847;31.524;74.366;2023-09-30T04:52:54;98480.22;;;30.71;nan
31225;BME280;17847;31.524;74.366;2023-09-30T04:55:24;98470.72;;;30.77;nan
31225;BME280;17847;31.524;74.366;2023-09-30T04:57:54;98472.63;;;31.15;nan
31225;BME280;17847;31.524;74.366;2023-09-30T05:00:23;98472.56;;;31.24;nan
31225;BME280;17847;31.524;74.366;2023-09-30T05:03:00;98478.75;;;31.53;nan
31225;BME280;17847;31.524;74.366;2023-09-30T05:05:46;98476.38;;;31.73;nan
31225;BME280;17847;31.524;74.366;2023-09-30T05:08:15;98480.34;;;31.34;nan
31225;BME280;17847;31.524;74.366;2023-09-30T05:10:48;98479.28;;;32.00;nan
31225;BME280;17847;31.524;74.366;2023-09-30T05:13:17;98481.75;;;31.40;nan
31225;BME280;17847;31.524;74.366;2023-09-30T05:15:49;98481.00;;;31.51;nan
31225;BME280;17847;31.524;74.366;2023-09-30T05:18:20;98478.34;;;31.84;nan
31225;BME280;17847;31.524;74.366;2023-09-30T05:20:49;98476.69;;;31.30;nan
31225;BME280;17847;31.524;74.366;2023-09-30T05:23:18;98479.63;;;31.66;nan
31225;BME280;17847;31.524;74.366;2023-09-30T05:25:48;98477.63;;;31.75;nan
31225;BME280;17847;31.524;74.366;2023-09-30T05:28:17;98471.81;;;31.77;nan
31225;BME280;17847;31.524;74.366;2023-09-30T05:30:50;98478.63;;;32.03;nan
31225;BME280;17847;31.524;74.366;2023-09-30T05:33:19;98468.38;;;32.70;nan
31225;BME280;17847;31.524;74.366;2023-09-30T05:35:49;98469.94;;;32.34;nan
31225;BME280;17847;31.524;74.366;2023-09-30T05:38:18;98469.53;;;32.12;nan
31225;BME280;17847;31.524;74.366;2023-09-30T05:40:49;98474.88;;;31.75;nan
31225;BME280;17847;31.524;74.366;2023-09-30T05:43:18;98468.31;;;32.21;nan
31225;BME280;17847;31.524;74.366;2023-09-30T05:45:48;98464.56;;;32.05;nan
31225;BME280;17847;31.524;74.366;2023-09-30T05:48:26;98463.22;;;31.99;nan
31225;BME280;17847;31.524;74.366;2023-09-30T05:50:55;98462.72;;;32.42;nan
31225;BME280;17847;31.524;74.366;2023-09-30T05:53:25;98456.19;;;32.22;nan
31225;BME280;17847;31.524;74.366;2023-09-30T05:55:57;98454.91;;;32.07;nan
31225;BME280;17847;31.524;74.366;2023-09-30T05:58:31;98462.41;;;31.98;nan
31225;BME280;17847;31.524;74.366;2023-09-30T06:01:00;98448.72;;;31.98;nan
31225;BME280;17847;31.524;74.366;2023-09-30T06:03:29;98453.09;;;31.79;nan
31225;BME280;17847;31.524;74.366;2023-09-30T06:05:59;98456.09;;;31.86;nan
31225;BME280;17847;31.524;74.366;2023-09-30T06:08:28;98449.41;;;31.95;nan
31225;BME280;17847;31.524;74.366;2023-09-30T06:10:58;98444.34;;;31.97;nan
31225;BME280;17847;31.524;74.366;2023-09-30T06:13:28;98444.78;;;32.20;nan
31225;BME280;17847;31.524;74.366;2023-09-30T06:16:05;98446.19;;;31.93;nan
31225;BME280;17847;31.524;74.366;2023-09-30T06:18:40;98438.81;;;31.73;nan
31225;BME280;17847;31.524;74.366;2023-09-30T06:21:09;98435.44;;;32.00;nan
31225;BME280;17847;31.524;74.366;2023-09-30T06:23:38;98442.66;;;32.05;nan
31225;BME280;17847;31.524;74.366;2023-09-30T06:26:09;98436.34;;;32.13;nan
31225;BME280;17847;31.524;74.366;2023-09-30T06:28:39;98433.59;;;31.92;nan
31225;BME280;17847;31.524;74.366;2023-09-30T06:31:10;98440.31;;;32.40;nan
31225;BME280;17847;31.524;74.366;2023-09-30T06:33:40;98425.81;;;32.15;nan
31225;BME280;17847;31.524;74.366;2023-09-30T06:36:11;98421.03;;;32.12;nan
31225;BME280;17847;31.524;74.366;2023-09-30T06:38:43;98424.00;;;32.31;nan
31225;BME280;17847;31.524;74.366;2023-09-30T06:41:22;98408.78;;;32.58;nan
31225;BME280;17847;31.524;74.366;2023-09-30T06:43:52;98413.16;;;32.71;nan
31225;BME280;17847;31.524;74.366;2023-09-30T06:46:21;98415.69;;;32.64;nan
31225;BME280;17847;31.524;74.366;2023-09-30T06:48:52;98412.72;;;32.69;nan
31225;BME280;17847;31.524;74.366;2023-09-30T06:51:21;98406.06;;;32.82;nan
31225;BME280;17847;31.524;74.366;2023-09-30T06:53:51;98410.38;;;32.95;nan
31225;BME280;17847;31.524;74.366;2023-09-30T06:56:20;98407.41;;;32.88;nan
31225;BME280;17847;31.524;74.366;2023-09-30T06:58:50;98401.75;;;33.21;nan
31225;BME280;17847;31.524;74.366;2023-09-30T07:01:19;98409.66;;;33.23;nan
31225;BME280;17847;31.524;74.366;2023-09-30T07:03:48;98404.75;;;33.16;nan
31225;BME280;17847;31.524;74.366;2023-09-30T07:06:24;98391.00;;;32.64;nan
31225;BME280;17847;31.524;74.366;2023-09-30T07:08:55;98386.88;;;32.34;nan
31225;BME280;17847;31.524;74.366;2023-09-30T07:11:28;98384.59;;;32.12;nan
31225;BME280;17847;31.524;74.366;2023-09-30T07:13:58;98384.34;;;32.41;nan
31225;BME280;17847;31.524;74.366;2023-09-30T07:16:28;98385.63;;;32.43;nan
31225;BME280;17847;31.524;74.366;2023-09-30T07:18:57;98380.59;;;32.45;nan
31225;BME280;17847;31.524;74.366;2023-09-30T07:21:27;98377.97;;;32.61;nan
31225;BME280;17847;31.524;74.366;2023-09-30T07:24:05;98378.16;;;32.80;nan
31225;BME280;17847;31.524;74.366;2023-09-30T07:26:35;98366.03;;;31.96;nan
31225;BME280;17847;31.524;74.366;2023-09-30T07:29:05;98368.94;;;32.24;nan
31225;BME280;17847;31.524;74.366;2023-09-30T07:31:47;98366.88;;;32.45;nan
31225;BME280;17847;31.524;74.366;2023-09-30T07:34:17;98361.63;;;32.52;nan
31225;BME280;17847;31.524;74.366;2023-09-30T07:36:47;98360.72;;;32.36;nan
31225;BME280;17847;31.524;74.366;2023-09-30T07:39:16;98355.09;;;32.45;nan
31225;BME280;17847;31.524;74.366;2023-09-30T07:41:46;98350.00;;;32.43;nan
31225;BME280;17847;31.524;74.366;2023-09-30T07:44:15;98346.44;;;32.43;nan
31225;BME280;17847;31.524;74.366;2023-09-30T07:46:44;98346.88;;;32.45;nan
31225;BME280;17847;31.524;74.366;2023-09-30T07:49:16;98347.81;;;32.37;nan
31225;BME280;17847;31.524;74.366;2023-09-30T07:51:45;98350.44;;;32.33;nan
31225;BME280;17847;31.524;74.366;2023-09-30T07:54:15;98342.34;;;32.25;nan
31225;BME280;17847;31.524;74.366;2023-09-30T07:56:59;98344.41;;;32.16;nan
31225;BME280;17847;31.524;74.366;2023-09-30T07:59:29;98339.03;;;32.19;nan
31225;BME280;17847;31.524;74.366;2023-09-30T08:02:02;98332.28;;;32.17;nan
31225;BME280;17847;31.524;74.366;2023-09-30T08:04:36;98326.34;;;32.15;nan
31225;BME280;17847;31.524;74.366;2023-09-30T08:07:05;98320.16;;;32.18;nan
31225;BME280;17847;31.524;74.366;2023-09-30T08:09:35;98326.34;;;32.15;nan
31225;BME280;17847;31.524;74.366;2023-09-30T08:12:06;98318.53;;;32.04;nan
31225;BME280;17847;31.524;74.366;2023-09-30T08:14:44;98315.59;;;31.97;nan
31225;BME280;17847;31.524;74.366;2023-09-30T08:17:14;98309.09;;;32.14;nan
31225;BME280;17847;31.524;74.366;2023-09-30T08:19:44;98309.34;;;32.21;nan
31225;BME280;17847;31.524;74.366;2023-09-30T08:22:14;98303.50;;;32.23;nan
31225;BME280;17847;31.524;74.366;2023-09-30T08:24:43;98294.13;;;32.24;nan
31225;BME280;17847;31.524;74.366;2023-09-30T08:27:13;98299.28;;;32.25;nan
31225;BME280;17847;31.524;74.366;2023-09-30T08:29:45;98289.25;;;32.17;nan
31225;BME280;17847;31.524;74.366;2023-09-30T08:32:15;98285.13;;;32.11;nan
31225;BME280;17847;31.524;74.366;2023-09-30T08:34:46;98279.75;;;32.02;nan
31225;BME280;17847;31.524;74.366;2023-09-30T08:37:16;98281.59;;;32.11;nan
31225;BME280;17847;31.524;74.366;2023-09-30T08:39:48;98275.41;;;32.14;nan
31225;BME280;17847;31.524;74.366;2023-09-30T08:42:19;98279.66;;;32.11;nan
31225;BME280;17847;31.524;74.366;2023-09-30T08:44:53;98268.34;;;32.13;nan
31225;BME280;17847;31.524;74.366;2023-09-30T08:47:26;98260.94;;;32.13;nan
31225;BME280;17847;31.524;74.366;2023-09-30T08:49:59;98264.91;;;32.16;nan
31225;BME280;17847;31.524;74.366;2023-09-30T08:52:37;98258.06;;;32.09;nan
31225;BME280;17847;31.524;74.366;2023-09-30T08:55:12;98255.41;;;32.01;nan
31225;BME280;17847;31.524;74.366;2023-09-30T08:57:42;98249.13;;;32.00;nan
31225;BME280;17847;31.524;74.366;2023-09-30T09:00:12;98248.00;;;32.01;nan
31225;BME280;17847;31.524;74.366;2023-09-30T09:02:43;98248.22;;;32.08;nan
31225;BME280;17847;31.524;74.366;2023-09-30T09:05:15;98238.31;;;32.16;nan
31225;BME280;17847;31.524;74.366;2023-09-30T09:07:47;98246.88;;;32.15;nan
31225;BME280;17847;31.524;74.366;2023-09-30T09:10:19;98240.16;;;32.12;nan
31225;BME280;17847;31.524;74.366;2023-09-30T09:12:58;98228.94;;;32.17;nan
31225;BME280;17847;31.524;74.366;2023-09-30T09:15:28;98229.53;;;32.11;nan
31225;BME280;17847;31.524;74.366;2023-09-30T09:17:58;98226.97;;;32.05;nan
31225;BME280;17847;31.524;74.366;2023-09-30T09:20:28;98224.72;;;31.95;nan
31225;BME280;17847;31.524;74.366;2023-09-30T09:22:57;98226.53;;;31.91;nan
31225;BME280;17847;31.524;74.366;2023-09-30T09:25:38;98224.25;;;31.93;nan
31225;BME280;17847;31.524;74.366;2023-09-30T09:28:08;98224.25;;;31.93;nan
31225;BME280;17847;31.524;74.366;2023-09-30T09:30:38;98218.22;;;31.88;nan
31225;BME280;17847;31.524;74.366;2023-09-30T09:33:10;98217.41;;;31.87;nan
31225;BME280;17847;31.524;74.366;2023-09-30T09:35:49;98208.78;;;31.73;nan
31225;BME280;17847;31.524;74.366;2023-09-30T09:38:21;98209.91;;;31.72;nan
31225;BME280;17847;31.524;74.366;2023-09-30T09:41:00;98206.34;;;31.72;nan
31225;BME280;17847;31.524;74.366;2023-09-30T09:43:34;98202.81;;;31.71;nan
31225;BME280;17847;31.524;74.366;2023-09-30T09:46:11;98200.56;;;31.73;nan
31225;BME280;17847;31.524;74.366;2023-09-30T09:48:42;98202.81;;;31.71;nan
31225;BME280;17847;31.524;74.366;2023-09-30T09:51:31;98195.75;;;31.70;nan
31225;BME280;17847;31.524;74.366;2023-09-30T09:54:11;98192.19;;;31.70;nan
31225;BME280;17847;31.524;74.366;2023-09-30T09:56:46;98191.41;;;31.69;nan
31225;BME280;17847;31.524;74.366;2023-09-30T09:59:25;98184.44;;;31.72;nan
31225;BME280;17847;31.524;74.366;2023-09-30T10:02:01;98185.16;;;31.69;nan
31225;BME280;17847;31.524;74.366;2023-09-30T10:07:50;98172.66;;;31.47;nan
31225;BME280;17847;31.524;74.366;2023-09-30T10:10:23;98164.00;;;31.45;nan
31225;BME280;17847;31.524;74.366;2023-09-30T10:13:00;98171.81;;;31.55;nan
31225;BME280;17847;31.524;74.366;2023-09-30T10:15:37;98168.34;;;31.46;nan
31225;BME280;17847;31.524;74.366;2023-09-30T10:18:15;98164.56;;;31.38;nan
31225;BME280;17847;31.524;74.366;2023-09-30T10:20:48;98163.88;;;31.29;nan
31225;BME280;17847;31.524;74.366;2023-09-30T10:26:14;98157.72;;;31.32;nan
31225;BME280;17847;31.524;74.366;2023-09-30T10:28:46;98151.34;;;31.28;nan
31225;BME280;17847;31.524;74.366;2023-09-30T10:31:23;98149.97;;;31.22;nan
31225;BME280;17847;31.524;74.366;2023-09-30T10:36:33;98151.00;;;31.17;nan
31225;BME280;17847;31.524;74.366;2023-09-30T10:39:10;98145.19;;;31.19;nan
31225;BME280;17847;31.524;74.366;2023-09-30T10:44:34;98139.00;;;31.10;nan
31225;BME280;17847;31.524;74.366;2023-09-30T10:49:59;98139.94;;;31.02;nan
31225;BME280;17847;31.524;74.366;2023-09-30T10:52:30;98133.72;;;30.93;nan
31225;BME280;17847;31.524;74.366;2023-09-30T10:55:04;98135.19;;;30.90;nan
31225;BME280;17847;31.524;74.366;2023-09-30T10:57:42;98128.91;;;30.90;nan
31225;BME280;17847;31.524;74.366;2023-09-30T11:00:19;98133.69;;;30.81;nan
31225;BME280;17847;31.524;74.366;2023-09-30T11:03:10;98133.31;;;30.70;nan
31225;BME280;17847;31.524;74.366;2023-09-30T11:05:47;98131.28;;;30.67;nan
31225;BME280;17847;31.524;74.366;2023-09-30T11:08:44;98133.22;;;30.66;nan
31225;BME280;17847;31.524;74.366;2023-09-30T11:11:17;98130.41;;;30.54;nan
31225;BME280;17847;31.524;74.366;2023-09-30T11:13:48;98119.72;;;30.49;nan
31225;BME280;17847;31.524;74.366;2023-09-30T11:16:20;98121.34;;;30.42;nan
31225;BME280;17847;31.524;74.366;2023-09-30T11:18:54;98118.38;;;30.34;nan
31225;BME280;17847;31.524;74.366;2023-09-30T11:21:25;98111.06;;;30.26;nan
31225;BME280;17847;31.524;74.366;2023-09-30T11:23:58;98121.50;;;30.24;nan
31225;BME280;17847;31.524;74.366;2023-09-30T11:26:33;98120.59;;;30.20;nan
31225;BME280;17847;31.524;74.366;2023-09-30T11:29:16;98113.38;;;30.16;nan
31225;BME280;17847;31.524;74.366;2023-09-30T11:31:47;98108.72;;;30.16;nan
31225;BME280;17847;31.524;74.366;2023-09-30T11:34:30;98102.22;;;30.09;nan
31225;BME280;17847;31.524;74.366;2023-09-30T11:37:02;98097.94;;;29.99;nan
31225;BME280;17847;31.524;74.366;2023-09-30T11:39:35;98113.59;;;29.90;nan
31225;BME280;17847;31.524;74.366;2023-09-30T11:42:15;98109.91;;;29.86;nan
31225;BME280;17847;31.524;74.366;2023-09-30T11:44:48;98104.31;;;29.82;nan
31225;BME280;17847;31.524;74.366;2023-09-30T11:47:28;98106.91;;;29.79;nan
31225;BME280;17847;31.524;74.366;2023-09-30T11:50:03;98107.13;;;29.74;nan
31225;BME280;17847;31.524;74.366;2023-09-30T11:52:33;98106.38;;;29.65;nan
31225;BME280;17847;31.524;74.366;2023-09-30T11:55:05;98103.03;;;29.59;nan
31225;BME280;17847;31.524;74.366;2023-09-30T11:57:35;98103.22;;;29.54;nan
31225;BME280;17847;31.524;74.366;2023-09-30T12:00:05;98092.63;;;29.53;nan
31225;BME280;17847;31.524;74.366;2023-09-30T12:02:42;98099.44;;;29.47;nan
31225;BME280;17847;31.524;74.366;2023-09-30T12:05:11;98099.13;;;29.39;nan
31225;BME280;17847;31.524;74.366;2023-09-30T12:07:42;98097.56;;;29.38;nan
31225;BME280;17847;31.524;74.366;2023-09-30T12:10:12;98096.41;;;29.39;nan
31225;BME280;17847;31.524;74.366;2023-09-30T12:12:47;98091.94;;;29.26;nan
31225;BME280;17847;31.524;74.366;2023-09-30T12:15:16;98088.94;;;29.19;nan
31225;BME280;17847;31.524;74.366;2023-09-30T12:17:45;98095.38;;;29.15;nan
31225;BME280;17847;31.524;74.366;2023-09-30T12:20:15;98089.31;;;29.09;nan
31225;BME280;17847;31.524;74.366;2023-09-30T12:22:47;98096.88;;;29.03;nan
31225;BME280;17847;31.524;74.366;2023-09-30T12:25:17;98087.59;;;28.96;nan
31225;BME280;17847;31.524;74.366;2023-09-30T12:27:50;98088.94;;;28.90;nan
31225;BME280;17847;31.524;74.366;2023-09-30T12:30:20;98087.00;;;28.82;nan
31225;BME280;17847;31.524;74.366;2023-09-30T12:32:49;98086.25;;;28.73;nan
31225;BME280;17847;31.524;74.366;2023-09-30T12:35:18;98092.84;;;28.72;nan
31225;BME280;17847;31.524;74.366;2023-09-30T12:37:49;98086.25;;;28.73;nan
31225;BME280;17847;31.524;74.366;2023-09-30T12:40:19;98080.97;;;28.68;nan
31225;BME280;17847;31.524;74.366;2023-09-30T12:42:49;98087.19;;;28.68;nan
31225;BME280;17847;31.524;74.366;2023-09-30T12:45:18;98089.91;;;28.68;nan
31225;BME280;17847;31.524;74.366;2023-09-30T12:47:48;98097.31;;;28.59;nan
31225;BME280;17847;31.524;74.366;2023-09-30T12:50:17;98085.94;;;28.66;nan
31225;BME280;17847;31.524;74.366;2023-09-30T12:52:46;98089.66;;;28.52;nan
31225;BME280;17847;31.524;74.366;2023-09-30T12:55:16;98089.03;;;28.38;nan
31225;BME280;17847;31.524;74.366;2023-09-30T12:57:48;98084.88;;;28.32;nan
31225;BME280;17847;31.524;74.366;2023-09-30T13:00:18;98084.56;;;28.25;nan
31225;BME280;17847;31.524;74.366;2023-09-30T13:02:48;98085.38;;;28.17;nan
31225;BME280;17847;31.524;74.366;2023-09-30T13:05:18;98088.75;;;28.14;nan
31225;BME280;17847;31.524;74.366;2023-09-30T13:07:49;98080.22;;;28.07;nan
31225;BME280;17847;31.524;74.366;2023-09-30T13:10:18;98082.16;;;27.98;nan
31225;BME280;17847;31.524;74.366;2023-09-30T13:12:48;98084.56;;;27.91;nan
31225;BME280;17847;31.524;74.366;2023-09-30T13:15:27;98083.09;;;27.85;nan
31225;BME280;17847;31.524;74.366;2023-09-30T13:18:20;98080.53;;;27.71;nan
31225;BME280;17847;31.524;74.366;2023-09-30T13:20:53;98084.22;;;27.66;nan
31225;BME280;17847;31.524;74.366;2023-09-30T13:23:23;98081.50;;;27.75;nan
31225;BME280;17847;31.524;74.366;2023-09-30T13:25:53;98085.81;;;27.67;nan
31225;BME280;17847;31.524;74.366;2023-09-30T13:28:26;98086.63;;;27.68;nan
31225;BME280;17847;31.524;74.366;2023-09-30T13:30:56;98087.75;;;27.67;nan
31225;BME280;17847;31.524;74.366;2023-09-30T13:33:26;98090.00;;;27.65;nan
31225;BME280;17847;31.524;74.366;2023-09-30T13:35:55;98091.25;;;27.59;nan
31225;BME280;17847;31.524;74.366;2023-09-30T13:38:30;98088.53;;;27.50;nan
31225;BME280;17847;31.524;74.366;2023-09-30T13:40:59;98089.44;;;27.46;nan
31225;BME280;17847;31.524;74.366;2023-09-30T13:43:30;98095.38;;;27.39;nan
31225;BME280;17847;31.524;74.366;2023-09-30T13:46:03;98095.81;;;27.33;nan
31225;BME280;17847;31.524;74.366;2023-09-30T13:48:35;98090.84;;;27.26;nan
31225;BME280;17847;31.524;74.366;2023-09-30T13:51:08;98091.78;;;27.21;nan
31225;BME280;17847;31.524;74.366;2023-09-30T13:53:37;98101.38;;;27.19;nan